Time;durP1;ratioP1;P1;durP2;ratioP2;P2;SDS_P1;SDS_P2;PMS_P1;PMS_P2;Temp;Humidity;BMP_temperature;BMP_pressure;BME280_temperature;BME280_humidity;BME280_pressure;Samples;Min_cycle;Max_cycle;Signal;HPM_P1;HPM_P2
2023/06/30 00:04:43;;;;;;;2.75;1.83;;;22.70;65.60;;;;;;10370166;28;20022;-58
2023/06/30 00:09:44;;;;;;;3.20;2.17;;;22.70;65.60;;;;;;10369691;28;20529;-57
2023/06/30 00:14:45;;;;;;;3.47;2.08;;;22.70;65.50;;;;;;10338973;28;20053;-58
2023/06/30 00:19:45;;;;;;;3.15;1.98;;;22.70;65.50;;;;;;10343403;28;20029;-57
2023/06/30 00:24:55;;;;;;;3.97;2.33;;;22.70;65.50;;;;;;10369466;28;20057;-58
2023/06/30 00:29:55;;;;;;;3.92;1.98;;;22.60;65.40;;;;;;10345682;28;20032;-57
2023/06/30 00:34:56;;;;;;;4.07;1.98;;;22.70;65.30;;;;;;10338011;28;20501;-57
2023/06/30 00:39:57;;;;;;;4.65;2.50;;;22.70;65.30;;;;;;10351140;28;20114;-56
2023/06/30 00:44:59;;;;;;;3.38;1.80;;;22.70;65.20;;;;;;10350366;28;20533;-57
2023/06/30 00:50:01;;;;;;;5.75;2.47;;;22.60;65.10;;;;;;10338438;28;20041;-57
2023/06/30 00:55:02;;;;;;;3.53;2.17;;;22.60;65.00;;;;;;10324496;28;20044;-57
2023/06/30 01:00:10;;;;;;;4.03;2.28;;;22.60;65.00;;;;;;10337239;28;20045;-57
2023/06/30 01:05:19;;;;;;;3.37;2.03;;;22.60;65.00;;;;;;10367938;28;20014;-58
2023/06/30 01:10:24;;;;;;;2.72;2.05;;;22.60;64.90;;;;;;10349865;28;20664;-57
2023/06/30 01:15:25;;;;;;;2.90;2.05;;;22.60;64.90;;;;;;10320810;28;20018;-57
2023/06/30 01:20:29;;;;;;;3.15;1.90;;;22.60;64.80;;;;;;10336404;28;20102;-57
2023/06/30 01:25:31;;;;;;;4.30;2.25;;;22.60;64.80;;;;;;10347290;28;20129;-57
2023/06/30 01:30:32;;;;;;;5.20;2.42;;;22.60;64.80;;;;;;10332891;28;20038;-57
2023/06/30 01:35:33;;;;;;;4.80;2.10;;;22.50;64.60;;;;;;10322413;28;20537;-58
2023/06/30 01:40:33;;;;;;;4.38;1.85;;;22.50;64.60;;;;;;10365554;28;20026;-58
2023/06/30 01:45:34;;;;;;;4.78;2.40;;;22.50;64.50;;;;;;10335482;28;20084;-57
2023/06/30 01:50:36;;;;;;;3.83;1.90;;;22.50;64.40;;;;;;10348369;28;20132;-57
2023/06/30 01:55:38;;;;;;;3.03;1.95;;;22.50;64.40;;;;;;10335424;28;20010;-57
2023/06/30 02:00:38;;;;;;;4.20;2.22;;;22.50;64.30;;;;;;10335294;28;20026;-57
2023/06/30 02:05:39;;;;;;;4.60;2.03;;;22.50;64.30;;;;;;10327703;28;20085;-57
2023/06/30 02:10:40;;;;;;;2.70;1.77;;;22.50;64.20;;;;;;10335164;28;20164;-57
2023/06/30 02:15:40;;;;;;;4.53;2.88;;;22.50;64.10;;;;;;10363715;28;20133;-57
2023/06/30 02:20:41;;;;;;;2.75;1.77;;;22.50;64.20;;;;;;10363708;28;20018;-57
2023/06/30 02:25:42;;;;;;;3.63;1.83;;;22.40;64.00;;;;;;10363518;28;20041;-58
2023/06/30 02:30:43;;;;;;;2.47;2.00;;;22.40;64.00;;;;;;10347170;28;20125;-57
2023/06/30 02:35:43;;;;;;;4.28;2.17;;;22.50;63.90;;;;;;10333753;28;20037;-57
2023/06/30 02:40:44;;;;;;;3.33;2.33;;;22.40;63.90;;;;;;10364357;28;20101;-58
2023/06/30 02:45:45;;;;;;;2.75;2.08;;;22.40;63.80;;;;;;10364422;28;20644;-57
2023/06/30 02:50:46;;;;;;;3.08;1.70;;;22.40;63.80;;;;;;10366304;28;20041;-57
2023/06/30 02:55:47;;;;;;;4.30;2.03;;;22.40;63.80;;;;;;10355566;28;20029;-57
2023/06/30 03:00:49;;;;;;;3.80;1.67;;;22.40;63.60;;;;;;10347259;28;20108;-57
2023/06/30 03:05:50;;;;;;;3.17;2.08;;;22.40;63.60;;;;;;10327486;28;20029;-57
2023/06/30 03:10:50;;;;;;;4.45;2.10;;;22.40;63.60;;;;;;10374198;28;20457;-56
2023/06/30 03:15:51;;;;;;;4.00;1.92;;;22.40;63.50;;;;;;10374690;28;20113;-58
2023/06/30 03:20:52;;;;;;;3.20;1.75;;;22.40;63.50;;;;;;10347989;28;20115;-57
2023/06/30 03:25:52;;;;;;;4.28;2.00;;;22.30;63.40;;;;;;10333137;28;20026;-58
2023/06/30 03:30:53;;;;;;;2.38;1.60;;;22.30;63.90;;;;;;10349965;28;20117;-57
2023/06/30 03:35:54;;;;;;;2.38;1.85;;;22.30;63.30;;;;;;10376812;28;20054;-57
2023/06/30 03:40:54;;;;;;;2.33;1.70;;;22.30;63.20;;;;;;10359182;28;20839;-57
2023/06/30 03:45:55;;;;;;;3.88;1.90;;;22.30;63.20;;;;;;10377109;28;20030;-56
2023/06/30 03:50:56;;;;;;;2.85;1.63;;;22.30;63.10;;;;;;10376707;28;20073;-57
2023/06/30 03:55:58;;;;;;;3.40;1.83;;;22.30;63.10;;;;;;10346255;28;20024;-57
2023/06/30 04:00:59;;;;;;;5.85;2.42;;;22.30;63.10;;;;;;10376946;28;20018;-57
2023/06/30 04:06:00;;;;;;;3.08;1.95;;;22.30;63.00;;;;;;10351355;28;20656;-57
2023/06/30 04:11:00;;;;;;;2.38;1.17;;;22.30;62.90;;;;;;10368521;28;20401;-57
2023/06/30 04:16:01;;;;;;;2.97;1.50;;;22.20;62.80;;;;;;10369738;28;20600;-57
2023/06/30 04:21:02;;;;;;;1.98;1.17;;;22.30;62.90;;;;;;10325785;28;20358;-57
2023/06/30 04:26:04;;;;;;;2.75;1.70;;;22.20;62.90;;;;;;10368279;28;20018;-57
2023/06/30 04:31:05;;;;;;;2.13;1.75;;;22.20;62.80;;;;;;10368458;28;20025;-57
2023/06/30 04:36:06;;;;;;;2.92;1.40;;;22.20;62.70;;;;;;10348832;28;20042;-57
2023/06/30 04:41:07;;;;;;;2.28;1.45;;;22.20;62.70;;;;;;10359962;28;20022;-57
2023/06/30 04:46:08;;;;;;;2.28;1.35;;;22.20;62.70;;;;;;10365256;28;20018;-57
2023/06/30 04:51:08;;;;;;;2.65;1.70;;;22.20;62.30;;;;;;10337101;28;20156;-57
2023/06/30 04:56:09;;;;;;;3.22;1.67;;;22.30;63.60;;;;;;10353878;28;20097;-58
2023/06/30 05:01:10;;;;;;;3.85;2.08;;;22.30;63.80;;;;;;10337341;28;20030;-57
2023/06/30 05:06:11;;;;;;;4.68;1.80;;;22.40;63.80;;;;;;10319900;28;20015;-54
2023/06/30 05:11:12;;;;;;;4.35;2.25;;;22.50;63.90;;;;;;10338054;28;20061;-56
2023/06/30 05:16:13;;;;;;;4.20;1.90;;;22.50;63.90;;;;;;10365661;28;20026;-56
2023/06/30 05:21:14;;;;;;;3.78;1.70;;;22.60;64.50;;;;;;10336296;28;20026;-56
2023/06/30 05:26:14;;;;;;;4.85;2.15;;;22.70;64.50;;;;;;10365324;28;20640;-56
2023/06/30 05:31:15;;;;;;;9.35;1.95;;;22.60;64.40;;;;;;10340359;28;20389;-59
2023/06/30 05:36:16;;;;;;;5.57;2.03;;;22.70;64.60;;;;;;10347508;28;20136;-56
2023/06/30 05:41:16;;;;;;;11.55;2.15;;;22.60;64.40;;;;;;10347370;28;20362;-61
2023/06/30 05:46:17;;;;;;;18.05;2.53;;;22.60;64.10;;;;;;10335769;28;20057;-58
2023/06/30 05:51:18;;;;;;;5.13;2.13;;;22.50;63.90;;;;;;10347046;28;20131;-58
2023/06/30 05:56:18;;;;;;;4.53;1.90;;;22.40;64.20;;;;;;10363783;28;20567;-57
2023/06/30 06:01:20;;;;;;;6.38;1.98;;;22.40;64.40;;;;;;10307888;28;20137;-56
2023/06/30 06:06:22;;;;;;;11.45;2.45;;;22.40;64.10;;;;;;10338856;28;20025;-59
2023/06/30 06:11:23;;;;;;;7.80;2.15;;;22.30;64.20;;;;;;10328574;28;20322;-55
2023/06/30 06:16:23;;;;;;;4.90;1.85;;;22.30;64.00;;;;;;10357188;28;20042;-56
2023/06/30 06:21:27;;;;;;;3.47;1.77;;;22.40;64.00;;;;;;10344952;28;20383;-57
2023/06/30 06:26:28;;;;;;;5.32;2.05;;;22.30;63.90;;;;;;10321722;28;20223;-56
2023/06/30 06:31:29;;;;;;;8.13;1.92;;;22.30;64.00;;;;;;10360806;28;20038;-57
2023/06/30 06:36:30;;;;;;;4.60;1.60;;;22.30;64.00;;;;;;10339744;28;20064;-57
2023/06/30 06:41:32;;;;;;;5.55;2.20;;;22.30;64.00;;;;;;10362231;28;20030;-58
2023/06/30 06:46:33;;;;;;;5.50;1.63;;;22.30;64.10;;;;;;10331904;28;20052;-57
2023/06/30 06:51:33;;;;;;;4.07;1.52;;;22.30;64.00;;;;;;10327372;28;20036;-57
2023/06/30 06:56:34;;;;;;;4.32;2.10;;;22.30;63.90;;;;;;10362567;28;20060;-57
2023/06/30 07:01:35;;;;;;;9.30;2.53;;;22.30;64.10;;;;;;10320479;28;20024;-57
2023/06/30 07:06:35;;;;;;;9.63;1.63;;;22.40;64.20;;;;;;10345761;28;20026;-55
2023/06/30 07:11:36;;;;;;;8.10;2.08;;;22.50;64.10;;;;;;10361722;28;20109;-57
2023/06/30 07:16:36;;;;;;;12.57;2.15;;;22.50;63.90;;;;;;10338953;28;20101;-56
2023/06/30 07:21:37;;;;;;;4.07;1.60;;;22.50;63.50;;;;;;10362567;28;20108;-56
2023/06/30 07:26:38;;;;;;;6.88;2.35;;;22.50;63.60;;;;;;10290658;28;20457;-57
2023/06/30 07:31:38;;;;;;;5.15;1.75;;;22.50;63.70;;;;;;10299941;28;20093;-57
2023/06/30 07:36:39;;;;;;;3.55;2.05;;;22.50;63.60;;;;;;10323017;28;20051;-56
2023/06/30 07:41:40;;;;;;;9.68;1.83;;;22.60;63.50;;;;;;10311898;28;20426;-57
2023/06/30 07:46:40;;;;;;;3.60;1.35;;;22.50;63.40;;;;;;10313120;28;20116;-57
2023/06/30 07:51:41;;;;;;;4.85;1.90;;;22.50;63.30;;;;;;10312583;28;20065;-57
2023/06/30 07:56:45;;;;;;;3.60;1.92;;;22.60;63.30;;;;;;10310648;28;20113;-57
2023/06/30 08:01:46;;;;;;;6.30;2.20;;;22.60;63.30;;;;;;10298681;28;20026;-56
2023/06/30 08:06:47;;;;;;;6.93;2.00;;;22.60;63.30;;;;;;10329592;28;20524;-57
2023/06/30 08:11:48;;;;;;;3.80;1.77;;;22.60;63.20;;;;;;10311092;28;20362;-56
2023/06/30 08:16:49;;;;;;;3.92;1.67;;;22.60;63.00;;;;;;10329133;28;20038;-57
2023/06/30 08:21:49;;;;;;;3.58;2.40;;;22.60;62.90;;;;;;10299885;28;20105;-56
2023/06/30 08:26:50;;;;;;;4.97;1.50;;;22.60;62.80;;;;;;10329079;28;20023;-57
2023/06/30 08:31:51;;;;;;;3.58;1.55;;;22.60;63.00;;;;;;10309992;28;20585;-57
2023/06/30 08:36:53;;;;;;;4.00;1.88;;;22.60;62.80;;;;;;10310761;28;20042;-57
2023/06/30 08:41:55;;;;;;;4.28;1.40;;;22.60;62.80;;;;;;10328329;28;20026;-57
2023/06/30 08:47:00;;;;;;;3.38;2.20;;;22.60;62.70;;;;;;10283075;28;20061;-57
2023/06/30 08:52:01;;;;;;;4.57;1.92;;;22.60;62.60;;;;;;10310465;28;20041;-57
2023/06/30 08:57:03;;;;;;;6.20;1.55;;;22.60;62.60;;;;;;10326245;28;20029;-57
2023/06/30 09:02:05;;;;;;;4.45;1.58;;;22.60;62.30;;;;;;10325368;28;20102;-57
2023/06/30 09:07:13;;;;;;;3.08;1.30;;;22.60;62.30;;;;;;10325470;28;20074;-57
2023/06/30 09:12:14;;;;;;;4.25;1.40;;;22.70;62.30;;;;;;10291727;28;20018;-56
2023/06/30 09:17:15;;;;;;;7.25;2.35;;;22.70;62.30;;;;;;10307953;28;20029;-57
2023/06/30 09:22:16;;;;;;;9.07;2.38;;;22.70;62.10;;;;;;10307950;28;20446;-57
2023/06/30 09:27:18;;;;;;;7.28;2.20;;;22.60;62.10;;;;;;10325829;28;20686;-57
2023/06/30 09:32:24;;;;;;;6.95;2.17;;;22.70;62.20;;;;;;10307640;28;20109;-57
2023/06/30 09:37:25;;;;;;;7.35;1.95;;;22.70;62.10;;;;;;10307065;28;20038;-56
2023/06/30 09:42:26;;;;;;;7.45;2.20;;;22.70;62.10;;;;;;10298439;28;20129;-57
2023/06/30 09:47:26;;;;;;;6.68;1.88;;;22.70;62.10;;;;;;10300164;28;20123;-57
2023/06/30 09:52:31;;;;;;;6.70;1.98;;;22.70;62.00;;;;;;10306158;28;20624;-57
2023/06/30 09:57:32;;;;;;;6.47;2.25;;;22.60;61.90;;;;;;10305608;28;20026;-57
2023/06/30 10:02:32;;;;;;;5.10;2.10;;;22.60;62.00;;;;;;10305431;28;20486;-57
2023/06/30 10:07:34;;;;;;;5.07;1.80;;;22.60;61.90;;;;;;10302671;28;20455;-57
2023/06/30 10:12:37;;;;;;;6.03;1.75;;;22.60;61.60;;;;;;10325791;28;20034;-58
2023/06/30 10:17:42;;;;;;;14.15;4.00;;;22.70;61.60;;;;;;10295846;28;20498;-58
2023/06/30 10:22:44;;;;;;;14.10;3.58;;;22.70;61.90;;;;;;10291500;28;20053;-58
2023/06/30 10:27:47;;;;;;;11.95;3.42;;;22.70;62.50;;;;;;10307244;28;20029;-58
2023/06/30 10:32:48;;;;;;;14.40;3.17;;;22.80;62.70;;;;;;10300256;28;20042;-60
2023/06/30 10:37:49;;;;;;;5.90;2.22;;;22.80;62.70;;;;;;10324366;28;20054;-60
2023/06/30 10:42:52;;;;;;;4.95;1.60;;;22.70;61.50;;;;;;10286773;28;20111;-61
2023/06/30 10:47:53;;;;;;;7.65;1.70;;;22.70;61.60;;;;;;10306827;28;20054;-60
2023/06/30 10:52:54;;;;;;;8.63;2.22;;;22.60;61.40;;;;;;10305023;28;20489;-59
2023/06/30 10:57:55;;;;;;;10.60;2.15;;;22.60;61.40;;;;;;10304147;28;20054;-58
2023/06/30 11:02:58;;;;;;;7.97;2.53;;;22.70;61.70;;;;;;10304766;28;20027;-56
2023/06/30 11:08:01;;;;;;;6.55;2.00;;;22.70;61.80;;;;;;10304681;28;20077;-57
2023/06/30 11:13:09;;;;;;;7.47;2.00;;;22.60;61.60;;;;;;10323572;28;20042;-57
2023/06/30 11:18:20;;;;;;;5.97;1.90;;;22.70;61.60;;;;;;10312925;28;20466;-57
2023/06/30 11:23:22;;;;;;;4.32;1.77;;;22.70;61.60;;;;;;10311648;28;20116;-57
2023/06/30 11:28:25;;;;;;;8.77;2.28;;;22.70;61.60;;;;;;10311696;28;20505;-57
2023/06/30 11:33:26;;;;;;;4.50;2.25;;;22.70;61.60;;;;;;10308730;28;20011;-57
2023/06/30 11:38:27;;;;;;;6.60;2.17;;;22.70;61.70;;;;;;10310039;28;20378;-57
2023/06/30 11:43:32;;;;;;;5.50;2.60;;;22.70;61.40;;;;;;10298533;28;20541;-57
2023/06/30 11:48:39;;;;;;;3.80;1.92;;;22.70;61.30;;;;;;10328650;28;20042;-57
2023/06/30 11:53:46;;;;;;;3.95;2.42;;;22.70;61.20;;;;;;10303166;28;20049;-57
2023/06/30 11:58:51;;;;;;;5.45;1.83;;;22.70;61.20;;;;;;10294899;28;20540;-57
2023/06/30 12:03:59;;;;;;;3.67;1.92;;;22.70;61.30;;;;;;10310493;28;20034;-57
2023/06/30 12:09:02;;;;;;;4.78;2.25;;;22.70;61.30;;;;;;10310282;28;20465;-58
2023/06/30 12:14:15;;;;;;;5.13;1.70;;;22.70;61.20;;;;;;10308310;28;20080;-57
2023/06/30 12:19:15;;;;;;;5.65;1.90;;;22.80;61.20;;;;;;10310397;28;20405;-58
2023/06/30 12:24:21;;;;;;;5.43;1.77;;;22.90;61.20;;;;;;10326562;28;20549;-57
2023/06/30 12:29:23;;;;;;;10.73;2.95;;;22.90;61.00;;;;;;10284502;28;20034;-57
2023/06/30 12:34:35;;;;;;;14.95;2.60;;;22.90;61.60;;;;;;10309911;28;20021;-57
2023/06/30 12:39:35;;;;;;;39.08;4.95;;;22.90;61.80;;;;;;10288433;28;20437;-59
2023/06/30 12:44:36;;;;;;;34.15;4.97;;;22.90;62.00;;;;;;10305198;28;20113;-58
2023/06/30 12:49:37;;;;;;;25.52;4.05;;;22.90;62.20;;;;;;10306463;28;20058;-58
2023/06/30 12:54:38;;;;;;;30.33;5.32;;;22.90;62.10;;;;;;10325437;28;20021;-58
2023/06/30 12:59:38;;;;;;;15.82;3.38;;;22.80;62.10;;;;;;10306770;28;20109;-58
2023/06/30 13:04:39;;;;;;;16.80;3.80;;;22.80;62.10;;;;;;10302357;28;20105;-58
2023/06/30 13:09:40;;;;;;;18.83;4.28;;;22.80;62.10;;;;;;10296007;28;20034;-57
2023/06/30 13:14:41;;;;;;;17.85;3.20;;;22.80;62.00;;;;;;10308321;28;20042;-58
2023/06/30 13:19:42;;;;;;;12.90;2.97;;;22.80;62.00;;;;;;10300960;28;20425;-57
2023/06/30 13:24:47;;;;;;;13.60;3.15;;;22.70;61.90;;;;;;10290203;28;20036;-55
2023/06/30 13:29:50;;;;;;;11.88;2.85;;;22.80;61.60;;;;;;10303543;28;20572;-57
2023/06/30 13:34:52;;;;;;;7.45;2.65;;;22.80;61.40;;;;;;10296514;28;20046;-57
2023/06/30 13:39:52;;;;;;;9.90;3.17;;;22.70;61.40;;;;;;10323172;28;20029;-57
2023/06/30 13:44:53;;;;;;;10.57;2.65;;;22.70;62.10;;;;;;10304749;28;20117;-57
2023/06/30 13:49:54;;;;;;;10.35;3.03;;;22.70;61.80;;;;;;10324597;28;20528;-57
2023/06/30 13:54:54;;;;;;;7.63;2.50;;;22.70;61.60;;;;;;10325302;28;20111;-57
2023/06/30 13:59:55;;;;;;;10.23;2.50;;;22.70;61.60;;;;;;10323457;28;20125;-57
2023/06/30 14:04:56;;;;;;;8.48;2.70;;;22.80;61.40;;;;;;10323155;28;20038;-57
2023/06/30 14:09:58;;;;;;;6.47;2.58;;;22.70;61.50;;;;;;10322317;28;20561;-57
2023/06/30 14:14:58;;;;;;;9.98;2.58;;;22.70;61.30;;;;;;10304374;28;20026;-57
2023/06/30 14:19:59;;;;;;;6.65;2.38;;;22.70;61.40;;;;;;10322325;28;20038;-57
2023/06/30 14:25:00;;;;;;;5.85;2.30;;;22.70;61.20;;;;;;10300360;28;20085;-57
2023/06/30 14:30:00;;;;;;;6.78;2.80;;;22.70;61.30;;;;;;10305372;28;20121;-57
2023/06/30 14:35:01;;;;;;;11.20;3.45;;;22.70;61.00;;;;;;10302976;28;20046;-58
2023/06/30 14:40:02;;;;;;;10.07;3.10;;;22.70;60.90;;;;;;10305932;28;20631;-59
2023/06/30 14:45:04;;;;;;;12.85;2.75;;;22.70;61.00;;;;;;10320902;28;20370;-57
2023/06/30 14:50:05;;;;;;;8.00;3.22;;;22.80;61.20;;;;;;10320559;28;20037;-58
2023/06/30 14:55:06;;;;;;;6.95;2.50;;;22.90;60.70;;;;;;10301636;28;20021;-61
2023/06/30 15:00:11;;;;;;;8.63;2.67;;;23.10;60.30;;;;;;10288138;28;20109;-60
2023/06/30 15:05:12;;;;;;;13.50;3.72;;;23.20;60.00;;;;;;10303805;28;20022;-58
2023/06/30 15:10:12;;;;;;;5.78;3.92;;;23.20;59.70;;;;;;10287734;28;20026;-58
2023/06/30 15:15:13;;;;;;;9.10;3.58;;;23.40;59.60;;;;;;10303959;28;20023;-60
2023/06/30 15:20:14;;;;;;;9.27;3.95;;;23.60;59.80;;;;;;10303114;28;20022;-60
2023/06/30 15:25:26;;;;;;;10.35;4.30;;;23.50;61.50;;;;;;10319904;28;20381;-60
2023/06/30 15:30:28;;;;;;;10.57;4.32;;;23.50;62.90;;;;;;10302351;28;20501;-58
2023/06/30 15:35:28;;;;;;;13.98;4.75;;;23.70;61.60;;;;;;10318310;28;20046;-59
2023/06/30 15:40:31;;;;;;;12.38;4.65;;;23.90;60.80;;;;;;10320528;28;20070;-58
2023/06/30 15:45:32;;;;;;;6.50;4.50;;;24.00;62.30;;;;;;10302745;28;20109;-60
2023/06/30 15:50:33;;;;;;;11.25;5.20;;;23.90;62.60;;;;;;10294363;28;20318;-58
2023/06/30 15:55:35;;;;;;;10.48;5.45;;;24.20;61.90;;;;;;10296644;28;20023;-56
2023/06/30 16:00:35;;;;;;;6.85;4.85;;;24.20;61.80;;;;;;10306383;28;20029;-57
2023/06/30 16:05:36;;;;;;;6.43;4.75;;;24.10;62.30;;;;;;10327859;28;20482;-57
2023/06/30 16:10:37;;;;;;;9.70;4.65;;;23.90;62.40;;;;;;10307042;28;20627;-57
2023/06/30 16:15:37;;;;;;;8.45;5.05;;;23.90;63.00;;;;;;10309623;28;20022;-57
2023/06/30 16:20:38;;;;;;;11.43;4.55;;;23.90;63.00;;;;;;10309833;28;20478;-58
2023/06/30 16:25:38;;;;;;;12.40;5.95;;;23.80;63.10;;;;;;10297031;28;20050;-57
2023/06/30 16:30:42;;;;;;;11.93;5.10;;;23.80;63.10;;;;;;10325709;28;20068;-57
2023/06/30 16:35:43;;;;;;;12.20;4.78;;;23.70;63.00;;;;;;10289928;28;20042;-56
2023/06/30 16:40:43;;;;;;;17.30;5.13;;;23.70;62.80;;;;;;10307938;28;20030;-56
2023/06/30 16:45:45;;;;;;;13.57;5.25;;;23.70;63.60;;;;;;10298430;28;20109;-56
2023/06/30 16:50:46;;;;;;;8.18;4.93;;;23.60;62.90;;;;;;10300791;28;20096;-56
2023/06/30 16:55:47;;;;;;;6.43;4.35;;;23.60;62.70;;;;;;10308352;28;20042;-57
2023/06/30 17:00:47;;;;;;;13.88;5.13;;;23.60;63.10;;;;;;10326078;28;20106;-57
2023/06/30 17:05:48;;;;;;;8.70;4.97;;;23.60;63.30;;;;;;10308001;28;21066;-57
2023/06/30 17:10:49;;;;;;;7.68;4.25;;;23.50;63.30;;;;;;10324898;28;20022;-56
2023/06/30 17:15:51;;;;;;;10.35;4.55;;;23.40;63.20;;;;;;10325463;28;20371;-55
2023/06/30 17:20:52;;;;;;;8.63;4.82;;;23.40;63.20;;;;;;10325214;28;20023;-56
2023/06/30 17:25:52;;;;;;;7.40;4.25;;;23.40;63.20;;;;;;10296477;28;20057;-56
2023/06/30 17:30:54;;;;;;;8.95;4.88;;;23.30;63.10;;;;;;10325039;28;20554;-57
2023/06/30 17:35:55;;;;;;;6.72;4.00;;;23.30;63.00;;;;;;10306549;28;20046;-57
2023/06/30 17:40:55;;;;;;;12.40;5.25;;;23.30;63.00;;;;;;10324184;28;20025;-57
2023/06/30 17:45:56;;;;;;;7.03;4.45;;;23.30;62.60;;;;;;10323553;28;20068;-57
2023/06/30 17:50:57;;;;;;;37.10;18.63;;;23.40;62.70;;;;;;10298282;28;20073;-56
2023/06/30 17:55:58;;;;;;;14.82;8.07;;;23.30;62.60;;;;;;10302727;28;20023;-59
2023/06/30 18:00:59;;;;;;;11.10;6.40;;;23.20;62.60;;;;;;10306584;28;20019;-60
2023/06/30 18:06:01;;;;;;;14.23;7.68;;;23.10;62.20;;;;;;10303883;28;20057;-59
2023/06/30 18:11:02;;;;;;;9.57;6.07;;;23.00;62.00;;;;;;10321736;28;20030;-59
2023/06/30 18:16:03;;;;;;;12.13;6.80;;;23.00;61.90;;;;;;10322333;28;20017;-59
2023/06/30 18:21:04;;;;;;;11.43;6.90;;;23.00;61.90;;;;;;10300802;28;20029;-59
2023/06/30 18:26:05;;;;;;;12.45;6.15;;;23.00;62.30;;;;;;10304257;28;20547;-59
2023/06/30 18:31:06;;;;;;;10.35;6.32;;;22.90;62.50;;;;;;10303207;28;20101;-59
2023/06/30 18:36:07;;;;;;;14.48;6.78;;;22.90;62.60;;;;;;10322972;28;20177;-59
2023/06/30 18:41:07;;;;;;;10.75;5.85;;;22.90;62.40;;;;;;10287783;28;20019;-59
2023/06/30 18:46:08;;;;;;;10.60;5.57;;;22.90;62.60;;;;;;10302940;28;20101;-59
2023/06/30 18:51:09;;;;;;;12.15;6.47;;;22.90;62.50;;;;;;10305594;28;20117;-56
2023/06/30 18:56:10;;;;;;;9.70;5.40;;;22.90;62.20;;;;;;10305861;28;20029;-56
2023/06/30 19:01:10;;;;;;;9.80;5.25;;;22.90;61.90;;;;;;10305546;28;20110;-57
2023/06/30 19:06:11;;;;;;;8.82;5.43;;;22.90;61.80;;;;;;10305516;28;20097;-56
2023/06/30 19:11:12;;;;;;;7.75;4.65;;;22.90;62.00;;;;;;10298446;28;20482;-58
2023/06/30 19:16:13;;;;;;;9.25;4.78;;;22.90;62.20;;;;;;10272151;28;20090;-57
2023/06/30 19:21:14;;;;;;;9.75;4.85;;;22.80;61.90;;;;;;10294218;28;20029;-56
2023/06/30 19:26:15;;;;;;;12.15;5.63;;;22.90;61.90;;;;;;10288479;28;20042;-57
2023/06/30 19:31:16;;;;;;;7.80;4.20;;;22.90;62.00;;;;;;10307412;28;20035;-58
2023/06/30 19:36:17;;;;;;;8.07;4.32;;;22.90;62.90;;;;;;10299423;28;20046;-58
2023/06/30 19:41:18;;;;;;;9.23;5.15;;;22.90;62.80;;;;;;10313355;28;20359;-58
2023/06/30 19:46:19;;;;;;;9.43;4.47;;;22.90;62.90;;;;;;10305388;28;20034;-58
2023/06/30 19:51:19;;;;;;;7.53;4.55;;;22.80;62.90;;;;;;10272963;28;20027;-58
2023/06/30 19:56:20;;;;;;;7.15;4.65;;;22.80;62.90;;;;;;10273020;28;20113;-57
2023/06/30 20:01:25;;;;;;;5.38;3.95;;;22.80;63.00;;;;;;10289908;28;20098;-55
2023/06/30 20:06:26;;;;;;;5.82;4.20;;;22.80;63.00;;;;;;10288604;28;20052;-57
2023/06/30 20:11:26;;;;;;;5.50;3.83;;;22.80;63.00;;;;;;10289820;28;20187;-56
2023/06/30 20:16:27;;;;;;;5.97;3.55;;;22.70;62.90;;;;;;10289703;28;20114;-57
2023/06/30 20:21:27;;;;;;;6.20;4.25;;;22.70;62.60;;;;;;10289435;28;20215;-57
2023/06/30 20:26:28;;;;;;;9.95;4.25;;;22.70;62.70;;;;;;10307376;28;20126;-57
2023/06/30 20:31:29;;;;;;;5.78;3.17;;;22.70;62.80;;;;;;10279169;28;20070;-57
2023/06/30 20:36:29;;;;;;;6.25;4.05;;;22.70;62.70;;;;;;10296108;28;20519;-57
2023/06/30 20:41:30;;;;;;;6.25;3.40;;;22.70;62.50;;;;;;10328627;28;20032;-59
2023/06/30 20:46:31;;;;;;;5.43;3.33;;;22.70;62.60;;;;;;10299904;28;20068;-57
2023/06/30 20:51:32;;;;;;;6.85;3.65;;;22.70;62.70;;;;;;10271025;28;20138;-57
2023/06/30 20:56:33;;;;;;;4.75;3.08;;;22.70;62.70;;;;;;10312707;28;20026;-55
2023/06/30 21:01:33;;;;;;;5.25;3.20;;;22.70;62.60;;;;;;10271565;28;20118;-57
2023/06/30 21:06:34;;;;;;;5.03;3.42;;;22.60;62.60;;;;;;10310487;28;20027;-58
2023/06/30 21:11:35;;;;;;;5.43;2.65;;;22.60;62.60;;;;;;10281551;28;20085;-55
2023/06/30 21:16:36;;;;;;;5.65;3.10;;;22.60;62.60;;;;;;10291503;28;20046;-57
2023/06/30 21:21:37;;;;;;;6.78;3.00;;;22.60;62.50;;;;;;10327249;28;20125;-58
2023/06/30 21:26:38;;;;;;;5.70;2.65;;;22.60;62.60;;;;;;10321196;28;20019;-56
2023/06/30 21:31:39;;;;;;;4.45;3.25;;;22.60;62.60;;;;;;10295317;28;20125;-57
2023/06/30 21:36:39;;;;;;;4.43;3.17;;;22.60;62.60;;;;;;10294660;28;20046;-57
2023/06/30 21:41:41;;;;;;;4.40;2.35;;;22.60;62.60;;;;;;10299072;28;20031;-58
2023/06/30 21:46:42;;;;;;;4.35;2.90;;;22.60;62.70;;;;;;10304007;28;20066;-58
2023/06/30 21:51:43;;;;;;;4.38;2.85;;;22.50;62.60;;;;;;10308367;28;20141;-58
2023/06/30 21:56:43;;;;;;;4.93;3.13;;;22.60;62.70;;;;;;10324789;28;20432;-58
2023/06/30 22:01:44;;;;;;;5.38;3.03;;;22.60;62.80;;;;;;10312151;28;20101;-58
2023/06/30 22:06:47;;;;;;;6.65;3.45;;;22.50;62.80;;;;;;10322862;28;20026;-58
2023/06/30 22:11:47;;;;;;;4.57;2.63;;;22.50;62.80;;;;;;10285013;28;20110;-58
2023/06/30 22:16:48;;;;;;;4.97;3.28;;;22.50;62.60;;;;;;10311179;28;20010;-58
2023/06/30 22:21:49;;;;;;;5.70;3.05;;;22.50;62.50;;;;;;10284607;28;20106;-57
2023/06/30 22:26:49;;;;;;;4.13;2.80;;;22.50;62.30;;;;;;10284359;28;20476;-58
2023/06/30 22:31:50;;;;;;;6.20;2.72;;;22.50;62.20;;;;;;10299730;28;20030;-58
2023/06/30 22:36:51;;;;;;;7.60;3.67;;;22.50;62.20;;;;;;10307094;28;20124;-58
2023/06/30 22:41:51;;;;;;;4.18;2.40;;;22.50;62.20;;;;;;10324221;28;20134;-57
2023/06/30 22:46:52;;;;;;;5.18;3.20;;;22.50;62.80;;;;;;10268220;28;20358;-58
2023/06/30 22:51:53;;;;;;;4.80;2.72;;;22.50;62.10;;;;;;10284397;28;20703;-58
2023/06/30 22:56:53;;;;;;;5.47;3.25;;;22.50;62.00;;;;;;10309619;28;20110;-58
2023/06/30 23:01:54;;;;;;;5.55;3.10;;;22.50;61.90;;;;;;10266380;28;20114;-58
2023/06/30 23:06:55;;;;;;;4.18;2.50;;;22.50;61.80;;;;;;10283750;28;20106;-57
2023/06/30 23:11:55;;;;;;;4.57;2.78;;;22.50;61.80;;;;;;10298748;28;20035;-57
2023/06/30 23:16:56;;;;;;;6.13;2.70;;;22.50;61.70;;;;;;10314699;28;20011;-58
2023/06/30 23:22:07;;;;;;;5.80;2.80;;;22.50;61.70;;;;;;10327381;28;20055;-58
2023/06/30 23:27:07;;;;;;;4.10;2.40;;;22.40;61.60;;;;;;10313632;28;20026;-57
2023/06/30 23:32:09;;;;;;;2.90;2.05;;;22.50;61.80;;;;;;10331297;28;20129;-58
2023/06/30 23:37:13;;;;;;;4.38;2.90;;;22.50;61.70;;;;;;10330914;28;20019;-57
2023/06/30 23:42:14;;;;;;;4.95;3.35;;;22.40;61.80;;;;;;10331105;28;20492;-58
2023/06/30 23:47:16;;;;;;;3.00;2.20;;;22.40;61.60;;;;;;10330568;28;20081;-57
2023/06/30 23:52:18;;;;;;;4.00;2.03;;;22.40;61.40;;;;;;10297178;28;20026;-58
2023/06/30 23:57:18;;;;;;;3.75;2.38;;;22.50;61.30;;;;;;10330834;28;20552;-57
